sensor_id;sensor_type;location;lat;lon;timestamp;P1;durP1;ratioP1;P2;durP2;ratioP2
81180;SDS011;70650;51.408;7.132;2023-12-14T00:01:41;28.77;;;9.73;;
81180;SDS011;70650;51.408;7.132;2023-12-14T00:04:07;28.20;;;8.73;;
81180;SDS011;70650;51.408;7.132;2023-12-14T00:06:32;26.90;;;8.20;;
81180;SDS011;70650;51.408;7.132;2023-12-14T00:08:58;27.80;;;9.00;;
81180;SDS011;70650;51.408;7.132;2023-12-14T00:11:23;29.20;;;8.80;;
81180;SDS011;70650;51.408;7.132;2023-12-14T00:13:48;26.73;;;8.40;;
81180;SDS011;70650;51.408;7.132;2023-12-14T00:16:14;28.50;;;8.88;;
81180;SDS011;70650;51.408;7.132;2023-12-14T00:18:39;27.80;;;8.40;;
81180;SDS011;70650;51.408;7.132;2023-12-14T00:21:04;23.80;;;8.07;;
81180;SDS011;70650;51.408;7.132;2023-12-14T00:23:30;22.42;;;8.88;;
81180;SDS011;70650;51.408;7.132;2023-12-14T00:25:55;21.00;;;7.97;;
81180;SDS011;70650;51.408;7.132;2023-12-14T00:28:21;24.63;;;8.60;;
81180;SDS011;70650;51.408;7.132;2023-12-14T00:30:47;23.98;;;7.90;;
81180;SDS011;70650;51.408;7.132;2023-12-14T00:33:12;22.93;;;8.00;;
81180;SDS011;70650;51.408;7.132;2023-12-14T00:35:37;24.50;;;8.27;;
81180;SDS011;70650;51.408;7.132;2023-12-14T00:38:03;23.27;;;8.13;;
81180;SDS011;70650;51.408;7.132;2023-12-14T00:40:28;23.23;;;8.90;;
81180;SDS011;70650;51.408;7.132;2023-12-14T00:42:55;22.88;;;8.20;;
81180;SDS011;70650;51.408;7.132;2023-12-14T00:45:20;22.27;;;8.43;;
81180;SDS011;70650;51.408;7.132;2023-12-14T00:47:45;26.98;;;8.32;;
81180;SDS011;70650;51.408;7.132;2023-12-14T00:50:10;29.60;;;9.53;;
81180;SDS011;70650;51.408;7.132;2023-12-14T00:52:36;27.95;;;9.45;;
81180;SDS011;70650;51.408;7.132;2023-12-14T00:55:01;24.80;;;8.43;;
81180;SDS011;70650;51.408;7.132;2023-12-14T00:57:27;25.70;;;9.02;;
81180;SDS011;70650;51.408;7.132;2023-12-14T00:59:52;27.38;;;9.52;;
81180;SDS011;70650;51.408;7.132;2023-12-14T01:02:17;27.30;;;8.90;;
81180;SDS011;70650;51.408;7.132;2023-12-14T01:04:43;23.80;;;9.03;;
81180;SDS011;70650;51.408;7.132;2023-12-14T01:07:08;24.00;;;8.32;;
81180;SDS011;70650;51.408;7.132;2023-12-14T01:09:33;21.00;;;7.03;;
81180;SDS011;70650;51.408;7.132;2023-12-14T01:11:59;20.02;;;7.22;;
81180;SDS011;70650;51.408;7.132;2023-12-14T01:14:24;20.40;;;7.30;;
81180;SDS011;70650;51.408;7.132;2023-12-14T01:16:49;21.13;;;7.27;;
81180;SDS011;70650;51.408;7.132;2023-12-14T01:19:15;20.73;;;6.40;;
81180;SDS011;70650;51.408;7.132;2023-12-14T01:21:40;17.50;;;6.17;;
81180;SDS011;70650;51.408;7.132;2023-12-14T01:24:05;17.47;;;6.37;;
81180;SDS011;70650;51.408;7.132;2023-12-14T01:26:31;17.17;;;5.97;;
81180;SDS011;70650;51.408;7.132;2023-12-14T01:28:56;17.73;;;6.40;;
81180;SDS011;70650;51.408;7.132;2023-12-14T01:31:24;18.83;;;5.97;;
81180;SDS011;70650;51.408;7.132;2023-12-14T01:33:50;15.82;;;5.15;;
81180;SDS011;70650;51.408;7.132;2023-12-14T01:36:25;17.88;;;6.15;;
81180;SDS011;70650;51.408;7.132;2023-12-14T01:38:51;14.70;;;5.38;;
81180;SDS011;70650;51.408;7.132;2023-12-14T01:41:18;13.98;;;4.93;;
81180;SDS011;70650;51.408;7.132;2023-12-14T01:43:43;15.35;;;5.70;;
81180;SDS011;70650;51.408;7.132;2023-12-14T01:46:09;14.82;;;5.43;;
81180;SDS011;70650;51.408;7.132;2023-12-14T01:48:35;15.20;;;4.68;;
81180;SDS011;70650;51.408;7.132;2023-12-14T01:51:00;14.00;;;5.13;;
81180;SDS011;70650;51.408;7.132;2023-12-14T01:53:26;14.60;;;4.53;;
81180;SDS011;70650;51.408;7.132;2023-12-14T01:55:51;9.88;;;3.85;;
81180;SDS011;70650;51.408;7.132;2023-12-14T01:58:17;13.02;;;4.30;;
81180;SDS011;70650;51.408;7.132;2023-12-14T02:00:43;11.52;;;4.10;;
81180;SDS011;70650;51.408;7.132;2023-12-14T02:03:14;13.27;;;4.35;;
81180;SDS011;70650;51.408;7.132;2023-12-14T02:05:40;11.43;;;3.88;;
81180;SDS011;70650;51.408;7.132;2023-12-14T02:08:06;14.15;;;4.53;;
81180;SDS011;70650;51.408;7.132;2023-12-14T02:10:31;11.30;;;4.27;;
81180;SDS011;70650;51.408;7.132;2023-12-14T02:12:56;10.33;;;4.00;;
81180;SDS011;70650;51.408;7.132;2023-12-14T02:15:22;11.27;;;4.17;;
81180;SDS011;70650;51.408;7.132;2023-12-14T02:17:47;10.82;;;3.90;;
81180;SDS011;70650;51.408;7.132;2023-12-14T02:20:12;13.07;;;4.43;;
81180;SDS011;70650;51.408;7.132;2023-12-14T02:22:53;12.70;;;4.10;;
81180;SDS011;70650;51.408;7.132;2023-12-14T02:25:19;12.85;;;4.03;;
81180;SDS011;70650;51.408;7.132;2023-12-14T02:27:45;13.48;;;4.43;;
81180;SDS011;70650;51.408;7.132;2023-12-14T02:30:11;12.82;;;4.32;;
81180;SDS011;70650;51.408;7.132;2023-12-14T02:32:37;14.38;;;5.00;;
81180;SDS011;70650;51.408;7.132;2023-12-14T02:35:03;12.63;;;4.40;;
81180;SDS011;70650;51.408;7.132;2023-12-14T02:37:29;13.63;;;4.78;;
81180;SDS011;70650;51.408;7.132;2023-12-14T02:39:54;13.37;;;5.40;;
81180;SDS011;70650;51.408;7.132;2023-12-14T02:42:20;15.60;;;5.60;;
81180;SDS011;70650;51.408;7.132;2023-12-14T02:44:46;17.37;;;6.27;;
81180;SDS011;70650;51.408;7.132;2023-12-14T02:47:11;15.75;;;5.78;;
81180;SDS011;70650;51.408;7.132;2023-12-14T02:49:36;18.63;;;6.27;;
81180;SDS011;70650;51.408;7.132;2023-12-14T02:52:02;18.50;;;6.80;;
81180;SDS011;70650;51.408;7.132;2023-12-14T02:54:27;18.55;;;6.00;;
81180;SDS011;70650;51.408;7.132;2023-12-14T02:56:53;19.67;;;6.73;;
81180;SDS011;70650;51.408;7.132;2023-12-14T02:59:18;19.65;;;6.70;;
81180;SDS011;70650;51.408;7.132;2023-12-14T03:01:43;17.17;;;6.30;;
81180;SDS011;70650;51.408;7.132;2023-12-14T03:04:08;19.38;;;5.97;;
81180;SDS011;70650;51.408;7.132;2023-12-14T03:06:34;18.97;;;6.23;;
81180;SDS011;70650;51.408;7.132;2023-12-14T03:08:59;16.87;;;5.57;;
81180;SDS011;70650;51.408;7.132;2023-12-14T03:11:25;18.90;;;7.15;;
81180;SDS011;70650;51.408;7.132;2023-12-14T03:13:51;16.98;;;6.05;;
81180;SDS011;70650;51.408;7.132;2023-12-14T03:16:16;19.40;;;6.65;;
81180;SDS011;70650;51.408;7.132;2023-12-14T03:18:42;20.13;;;6.90;;
81180;SDS011;70650;51.408;7.132;2023-12-14T03:21:07;18.52;;;6.00;;
81180;SDS011;70650;51.408;7.132;2023-12-14T03:23:34;18.10;;;6.75;;
81180;SDS011;70650;51.408;7.132;2023-12-14T03:25:59;17.77;;;6.40;;
81180;SDS011;70650;51.408;7.132;2023-12-14T03:28:24;18.73;;;7.00;;
81180;SDS011;70650;51.408;7.132;2023-12-14T03:30:49;21.10;;;6.90;;
81180;SDS011;70650;51.408;7.132;2023-12-14T03:33:15;19.87;;;7.53;;
81180;SDS011;70650;51.408;7.132;2023-12-14T03:35:40;19.30;;;6.67;;
81180;SDS011;70650;51.408;7.132;2023-12-14T03:38:07;19.95;;;7.40;;
81180;SDS011;70650;51.408;7.132;2023-12-14T03:40:33;23.38;;;7.57;;
81180;SDS011;70650;51.408;7.132;2023-12-14T03:42:58;21.90;;;7.30;;
81180;SDS011;70650;51.408;7.132;2023-12-14T03:45:23;20.93;;;7.47;;
81180;SDS011;70650;51.408;7.132;2023-12-14T03:47:49;23.10;;;7.73;;
81180;SDS011;70650;51.408;7.132;2023-12-14T03:50:14;22.65;;;8.20;;
81180;SDS011;70650;51.408;7.132;2023-12-14T03:52:39;21.48;;;7.55;;
81180;SDS011;70650;51.408;7.132;2023-12-14T03:55:05;21.52;;;7.38;;
81180;SDS011;70650;51.408;7.132;2023-12-14T03:57:31;26.38;;;8.23;;
81180;SDS011;70650;51.408;7.132;2023-12-14T03:59:57;21.95;;;7.63;;
81180;SDS011;70650;51.408;7.132;2023-12-14T04:02:22;24.00;;;8.10;;
81180;SDS011;70650;51.408;7.132;2023-12-14T04:04:48;26.25;;;8.25;;
81180;SDS011;70650;51.408;7.132;2023-12-14T04:07:13;22.08;;;7.85;;
81180;SDS011;70650;51.408;7.132;2023-12-14T04:09:38;20.17;;;6.40;;
81180;SDS011;70650;51.408;7.132;2023-12-14T04:12:04;16.03;;;6.50;;
81180;SDS011;70650;51.408;7.132;2023-12-14T04:14:30;18.00;;;6.10;;
81180;SDS011;70650;51.408;7.132;2023-12-14T04:16:55;16.53;;;6.00;;
81180;SDS011;70650;51.408;7.132;2023-12-14T04:19:20;16.27;;;5.25;;
81180;SDS011;70650;51.408;7.132;2023-12-14T04:21:47;18.23;;;6.07;;
81180;SDS011;70650;51.408;7.132;2023-12-14T04:24:12;16.27;;;5.50;;
81180;SDS011;70650;51.408;7.132;2023-12-14T04:26:37;14.97;;;5.50;;
81180;SDS011;70650;51.408;7.132;2023-12-14T04:29:03;16.17;;;5.35;;
81180;SDS011;70650;51.408;7.132;2023-12-14T04:31:28;15.00;;;5.22;;
81180;SDS011;70650;51.408;7.132;2023-12-14T04:33:54;14.15;;;4.75;;
81180;SDS011;70650;51.408;7.132;2023-12-14T04:36:19;13.88;;;4.45;;
81180;SDS011;70650;51.408;7.132;2023-12-14T04:38:44;16.65;;;4.93;;
81180;SDS011;70650;51.408;7.132;2023-12-14T04:41:12;13.23;;;4.93;;
81180;SDS011;70650;51.408;7.132;2023-12-14T04:43:38;13.20;;;4.30;;
81180;SDS011;70650;51.408;7.132;2023-12-14T04:46:03;14.67;;;4.20;;
81180;SDS011;70650;51.408;7.132;2023-12-14T04:48:28;15.25;;;4.53;;
81180;SDS011;70650;51.408;7.132;2023-12-14T04:50:54;12.93;;;4.53;;
81180;SDS011;70650;51.408;7.132;2023-12-14T04:53:19;13.97;;;5.10;;
81180;SDS011;70650;51.408;7.132;2023-12-14T04:55:44;17.63;;;5.13;;
81180;SDS011;70650;51.408;7.132;2023-12-14T04:58:09;14.43;;;5.20;;
81180;SDS011;70650;51.408;7.132;2023-12-14T05:00:35;12.90;;;4.47;;
81180;SDS011;70650;51.408;7.132;2023-12-14T05:03:00;15.23;;;5.30;;
81180;SDS011;70650;51.408;7.132;2023-12-14T05:05:25;21.10;;;5.67;;
81180;SDS011;70650;51.408;7.132;2023-12-14T05:07:50;17.87;;;5.13;;
81180;SDS011;70650;51.408;7.132;2023-12-14T05:10:16;17.00;;;5.00;;
81180;SDS011;70650;51.408;7.132;2023-12-14T05:12:41;15.23;;;4.97;;
81180;SDS011;70650;51.408;7.132;2023-12-14T05:15:07;16.10;;;5.28;;
81180;SDS011;70650;51.408;7.132;2023-12-14T05:17:35;12.55;;;4.15;;
81180;SDS011;70650;51.408;7.132;2023-12-14T05:20:01;13.40;;;4.90;;
81180;SDS011;70650;51.408;7.132;2023-12-14T05:22:28;14.10;;;4.90;;
81180;SDS011;70650;51.408;7.132;2023-12-14T05:24:53;12.45;;;4.50;;
81180;SDS011;70650;51.408;7.132;2023-12-14T05:27:19;17.70;;;4.83;;
81180;SDS011;70650;51.408;7.132;2023-12-14T05:29:44;14.30;;;4.35;;
81180;SDS011;70650;51.408;7.132;2023-12-14T05:32:10;14.73;;;4.30;;
81180;SDS011;70650;51.408;7.132;2023-12-14T05:34:35;13.73;;;4.50;;
81180;SDS011;70650;51.408;7.132;2023-12-14T05:37:00;16.57;;;4.67;;
81180;SDS011;70650;51.408;7.132;2023-12-14T05:39:26;14.07;;;5.07;;
81180;SDS011;70650;51.408;7.132;2023-12-14T05:41:51;15.80;;;4.80;;
81180;SDS011;70650;51.408;7.132;2023-12-14T05:44:16;15.37;;;4.40;;
81180;SDS011;70650;51.408;7.132;2023-12-14T05:46:42;12.70;;;4.23;;
81180;SDS011;70650;51.408;7.132;2023-12-14T05:49:07;11.07;;;3.87;;
81180;SDS011;70650;51.408;7.132;2023-12-14T05:51:32;12.85;;;4.32;;
81180;SDS011;70650;51.408;7.132;2023-12-14T05:53:58;12.13;;;4.53;;
81180;SDS011;70650;51.408;7.132;2023-12-14T05:56:24;10.95;;;3.80;;
81180;SDS011;70650;51.408;7.132;2023-12-14T05:58:50;13.02;;;4.68;;
81180;SDS011;70650;51.408;7.132;2023-12-14T06:01:19;14.17;;;4.37;;
81180;SDS011;70650;51.408;7.132;2023-12-14T06:03:44;12.48;;;4.75;;
81180;SDS011;70650;51.408;7.132;2023-12-14T06:06:10;14.25;;;5.00;;
81180;SDS011;70650;51.408;7.132;2023-12-14T06:08:37;14.20;;;5.30;;
81180;SDS011;70650;51.408;7.132;2023-12-14T06:11:02;16.95;;;5.60;;
81180;SDS011;70650;51.408;7.132;2023-12-14T06:13:28;14.30;;;5.50;;
81180;SDS011;70650;51.408;7.132;2023-12-14T06:15:53;17.42;;;5.47;;
81180;SDS011;70650;51.408;7.132;2023-12-14T06:18:19;15.20;;;4.93;;
81180;SDS011;70650;51.408;7.132;2023-12-14T06:20:44;16.35;;;5.88;;
81180;SDS011;70650;51.408;7.132;2023-12-14T06:23:10;17.73;;;5.63;;
81180;SDS011;70650;51.408;7.132;2023-12-14T06:25:35;18.90;;;6.03;;
81180;SDS011;70650;51.408;7.132;2023-12-14T06:28:00;15.20;;;5.20;;
81180;SDS011;70650;51.408;7.132;2023-12-14T06:30:26;16.27;;;5.57;;
81180;SDS011;70650;51.408;7.132;2023-12-14T06:32:51;14.30;;;5.43;;
81180;SDS011;70650;51.408;7.132;2023-12-14T06:35:16;16.00;;;5.30;;
81180;SDS011;70650;51.408;7.132;2023-12-14T06:37:41;15.77;;;5.70;;
81180;SDS011;70650;51.408;7.132;2023-12-14T06:40:07;12.95;;;4.68;;
81180;SDS011;70650;51.408;7.132;2023-12-14T06:42:34;16.15;;;5.25;;
81180;SDS011;70650;51.408;7.132;2023-12-14T06:45:00;16.98;;;5.53;;
81180;SDS011;70650;51.408;7.132;2023-12-14T06:47:27;15.38;;;5.60;;
81180;SDS011;70650;51.408;7.132;2023-12-14T06:49:53;20.00;;;7.13;;
81180;SDS011;70650;51.408;7.132;2023-12-14T06:52:18;19.17;;;6.80;;
81180;SDS011;70650;51.408;7.132;2023-12-14T06:54:43;16.60;;;6.40;;
81180;SDS011;70650;51.408;7.132;2023-12-14T06:57:10;16.90;;;6.55;;
81180;SDS011;70650;51.408;7.132;2023-12-14T06:59:35;20.50;;;6.93;;
81180;SDS011;70650;51.408;7.132;2023-12-14T07:02:00;18.03;;;6.63;;
81180;SDS011;70650;51.408;7.132;2023-12-14T07:04:26;17.80;;;6.43;;
81180;SDS011;70650;51.408;7.132;2023-12-14T07:06:51;21.30;;;7.67;;
81180;SDS011;70650;51.408;7.132;2023-12-14T07:09:18;20.25;;;7.10;;
81180;SDS011;70650;51.408;7.132;2023-12-14T07:11:43;21.98;;;6.85;;
81180;SDS011;70650;51.408;7.132;2023-12-14T07:14:08;22.33;;;7.83;;
81180;SDS011;70650;51.408;7.132;2023-12-14T07:16:33;23.80;;;7.28;;
81180;SDS011;70650;51.408;7.132;2023-12-14T07:18:59;20.60;;;7.27;;
81180;SDS011;70650;51.408;7.132;2023-12-14T07:21:25;23.30;;;8.00;;
81180;SDS011;70650;51.408;7.132;2023-12-14T07:23:52;25.10;;;7.93;;
81180;SDS011;70650;51.408;7.132;2023-12-14T07:26:17;19.23;;;6.55;;
81180;SDS011;70650;51.408;7.132;2023-12-14T07:28:42;19.85;;;6.72;;
81180;SDS011;70650;51.408;7.132;2023-12-14T07:31:08;24.73;;;7.70;;
81180;SDS011;70650;51.408;7.132;2023-12-14T07:33:33;21.43;;;7.17;;
81180;SDS011;70650;51.408;7.132;2023-12-14T07:35:58;18.90;;;6.82;;
81180;SDS011;70650;51.408;7.132;2023-12-14T07:38:24;20.50;;;7.37;;
81180;SDS011;70650;51.408;7.132;2023-12-14T07:40:49;20.67;;;7.13;;
81180;SDS011;70650;51.408;7.132;2023-12-14T07:43:15;20.95;;;7.50;;
81180;SDS011;70650;51.408;7.132;2023-12-14T07:45:40;19.85;;;7.22;;
81180;SDS011;70650;51.408;7.132;2023-12-14T07:48:06;18.40;;;6.60;;
81180;SDS011;70650;51.408;7.132;2023-12-14T07:50:31;21.13;;;6.23;;
81180;SDS011;70650;51.408;7.132;2023-12-14T07:52:56;16.85;;;6.15;;
81180;SDS011;70650;51.408;7.132;2023-12-14T07:55:22;16.67;;;6.10;;
81180;SDS011;70650;51.408;7.132;2023-12-14T07:57:47;18.27;;;6.78;;
81180;SDS011;70650;51.408;7.132;2023-12-14T08:00:13;17.00;;;5.90;;
81180;SDS011;70650;51.408;7.132;2023-12-14T08:02:39;15.88;;;5.75;;
81180;SDS011;70650;51.408;7.132;2023-12-14T08:05:05;17.40;;;6.43;;
81180;SDS011;70650;51.408;7.132;2023-12-14T08:07:31;18.35;;;6.72;;
81180;SDS011;70650;51.408;7.132;2023-12-14T08:09:58;20.30;;;6.97;;
81180;SDS011;70650;51.408;7.132;2023-12-14T08:12:24;18.42;;;6.15;;
81180;SDS011;70650;51.408;7.132;2023-12-14T08:14:50;18.92;;;6.32;;
81180;SDS011;70650;51.408;7.132;2023-12-14T08:17:16;21.77;;;6.88;;
81180;SDS011;70650;51.408;7.132;2023-12-14T08:19:42;19.85;;;7.07;;
81180;SDS011;70650;51.408;7.132;2023-12-14T08:22:08;23.67;;;7.22;;
81180;SDS011;70650;51.408;7.132;2023-12-14T08:24:36;20.48;;;7.18;;
81180;SDS011;70650;51.408;7.132;2023-12-14T08:27:04;21.08;;;7.60;;
81180;SDS011;70650;51.408;7.132;2023-12-14T08:29:31;18.65;;;6.90;;
81180;SDS011;70650;51.408;7.132;2023-12-14T08:31:57;25.15;;;7.85;;
81180;SDS011;70650;51.408;7.132;2023-12-14T08:34:27;21.40;;;7.07;;
81180;SDS011;70650;51.408;7.132;2023-12-14T08:36:52;21.42;;;7.35;;
81180;SDS011;70650;51.408;7.132;2023-12-14T08:39:18;19.27;;;6.97;;
81180;SDS011;70650;51.408;7.132;2023-12-14T08:41:45;18.20;;;6.75;;
81180;SDS011;70650;51.408;7.132;2023-12-14T08:44:10;20.67;;;7.18;;
81180;SDS011;70650;51.408;7.132;2023-12-14T08:46:42;19.27;;;7.20;;
81180;SDS011;70650;51.408;7.132;2023-12-14T08:49:09;19.88;;;7.55;;
81180;SDS011;70650;51.408;7.132;2023-12-14T08:51:36;22.05;;;7.35;;
81180;SDS011;70650;51.408;7.132;2023-12-14T08:54:01;19.17;;;7.25;;
81180;SDS011;70650;51.408;7.132;2023-12-14T08:56:26;21.13;;;7.63;;
81180;SDS011;70650;51.408;7.132;2023-12-14T08:58:52;21.13;;;7.27;;
81180;SDS011;70650;51.408;7.132;2023-12-14T09:01:21;19.30;;;6.63;;
81180;SDS011;70650;51.408;7.132;2023-12-14T09:03:47;20.80;;;7.10;;
81180;SDS011;70650;51.408;7.132;2023-12-14T09:06:14;19.55;;;7.22;;
81180;SDS011;70650;51.408;7.132;2023-12-14T09:08:41;20.05;;;7.38;;
81180;SDS011;70650;51.408;7.132;2023-12-14T09:11:07;20.70;;;7.23;;
81180;SDS011;70650;51.408;7.132;2023-12-14T09:13:32;22.30;;;7.07;;
81180;SDS011;70650;51.408;7.132;2023-12-14T09:15:57;19.47;;;7.73;;
81180;SDS011;70650;51.408;7.132;2023-12-14T09:18:23;23.67;;;8.88;;
81180;SDS011;70650;51.408;7.132;2023-12-14T09:20:49;27.50;;;9.65;;
81180;SDS011;70650;51.408;7.132;2023-12-14T09:23:17;25.52;;;8.98;;
81180;SDS011;70650;51.408;7.132;2023-12-14T09:25:43;28.25;;;9.20;;
81180;SDS011;70650;51.408;7.132;2023-12-14T09:28:09;31.52;;;9.75;;
81180;SDS011;70650;51.408;7.132;2023-12-14T09:30:36;27.35;;;10.05;;
81180;SDS011;70650;51.408;7.132;2023-12-14T09:33:01;28.13;;;9.83;;
81180;SDS011;70650;51.408;7.132;2023-12-14T09:35:26;28.67;;;9.97;;
81180;SDS011;70650;51.408;7.132;2023-12-14T09:37:53;30.90;;;11.07;;
81180;SDS011;70650;51.408;7.132;2023-12-14T09:40:18;29.35;;;10.90;;
81180;SDS011;70650;51.408;7.132;2023-12-14T09:42:44;31.42;;;10.10;;
81180;SDS011;70650;51.408;7.132;2023-12-14T09:45:10;33.17;;;10.65;;
81180;SDS011;70650;51.408;7.132;2023-12-14T09:47:36;28.90;;;10.30;;
81180;SDS011;70650;51.408;7.132;2023-12-14T09:50:03;30.63;;;10.38;;
81180;SDS011;70650;51.408;7.132;2023-12-14T09:52:29;31.77;;;10.65;;
81180;SDS011;70650;51.408;7.132;2023-12-14T09:54:54;28.65;;;9.48;;
81180;SDS011;70650;51.408;7.132;2023-12-14T09:57:19;28.03;;;9.63;;
81180;SDS011;70650;51.408;7.132;2023-12-14T09:59:53;28.13;;;9.57;;
81180;SDS011;70650;51.408;7.132;2023-12-14T10:02:19;25.90;;;9.20;;
81180;SDS011;70650;51.408;7.132;2023-12-14T10:04:45;22.48;;;9.20;;
81180;SDS011;70650;51.408;7.132;2023-12-14T10:07:11;22.98;;;8.20;;
81180;SDS011;70650;51.408;7.132;2023-12-14T10:09:37;26.57;;;8.63;;
81180;SDS011;70650;51.408;7.132;2023-12-14T10:12:06;24.92;;;8.57;;
81180;SDS011;70650;51.408;7.132;2023-12-14T10:14:33;25.15;;;8.55;;
81180;SDS011;70650;51.408;7.132;2023-12-14T10:19:46;24.17;;;8.35;;
81180;SDS011;70650;51.408;7.132;2023-12-14T10:22:15;22.05;;;7.65;;
81180;SDS011;70650;51.408;7.132;2023-12-14T10:24:48;26.13;;;8.60;;
81180;SDS011;70650;51.408;7.132;2023-12-14T10:27:15;22.02;;;8.30;;
81180;SDS011;70650;51.408;7.132;2023-12-14T10:29:41;21.60;;;7.22;;
81180;SDS011;70650;51.408;7.132;2023-12-14T10:32:07;20.48;;;7.20;;
81180;SDS011;70650;51.408;7.132;2023-12-14T10:34:34;22.27;;;6.88;;
81180;SDS011;70650;51.408;7.132;2023-12-14T10:37:00;21.80;;;6.95;;
81180;SDS011;70650;51.408;7.132;2023-12-14T10:39:29;23.05;;;8.05;;
81180;SDS011;70650;51.408;7.132;2023-12-14T10:41:56;22.63;;;7.18;;
81180;SDS011;70650;51.408;7.132;2023-12-14T10:44:23;21.83;;;8.10;;
81180;SDS011;70650;51.408;7.132;2023-12-14T10:46:52;20.70;;;6.95;;
81180;SDS011;70650;51.408;7.132;2023-12-14T10:49:23;23.80;;;7.85;;
81180;SDS011;70650;51.408;7.132;2023-12-14T10:51:50;21.40;;;7.32;;
81180;SDS011;70650;51.408;7.132;2023-12-14T10:54:17;22.15;;;7.68;;
81180;SDS011;70650;51.408;7.132;2023-12-14T10:56:44;19.58;;;7.07;;
81180;SDS011;70650;51.408;7.132;2023-12-14T10:59:09;22.55;;;8.00;;
81180;SDS011;70650;51.408;7.132;2023-12-14T11:01:34;21.03;;;7.23;;
81180;SDS011;70650;51.408;7.132;2023-12-14T11:04:04;23.05;;;8.27;;
81180;SDS011;70650;51.408;7.132;2023-12-14T11:06:32;19.48;;;7.03;;
81180;SDS011;70650;51.408;7.132;2023-12-14T11:09:01;20.80;;;7.03;;
81180;SDS011;70650;51.408;7.132;2023-12-14T11:11:37;21.63;;;8.18;;
81180;SDS011;70650;51.408;7.132;2023-12-14T11:14:08;21.50;;;7.15;;
81180;SDS011;70650;51.408;7.132;2023-12-14T11:16:36;23.80;;;8.23;;
81180;SDS011;70650;51.408;7.132;2023-12-14T11:21:46;20.55;;;7.82;;
81180;SDS011;70650;51.408;7.132;2023-12-14T11:24:12;20.75;;;7.03;;
81180;SDS011;70650;51.408;7.132;2023-12-14T11:26:37;20.02;;;6.35;;
81180;SDS011;70650;51.408;7.132;2023-12-14T11:29:03;18.17;;;6.97;;
81180;SDS011;70650;51.408;7.132;2023-12-14T11:31:29;15.18;;;5.97;;
81180;SDS011;70650;51.408;7.132;2023-12-14T11:33:54;16.40;;;6.63;;
81180;SDS011;70650;51.408;7.132;2023-12-14T11:36:21;18.05;;;7.38;;
81180;SDS011;70650;51.408;7.132;2023-12-14T11:38:47;17.35;;;6.03;;
81180;SDS011;70650;51.408;7.132;2023-12-14T11:41:14;16.27;;;5.82;;
81180;SDS011;70650;51.408;7.132;2023-12-14T11:43:41;17.08;;;6.50;;
81180;SDS011;70650;51.408;7.132;2023-12-14T11:46:08;17.27;;;7.45;;
81180;SDS011;70650;51.408;7.132;2023-12-14T11:48:34;18.15;;;7.32;;
81180;SDS011;70650;51.408;7.132;2023-12-14T11:51:00;19.17;;;7.77;;
81180;SDS011;70650;51.408;7.132;2023-12-14T11:53:25;18.63;;;6.85;;
81180;SDS011;70650;51.408;7.132;2023-12-14T11:55:52;18.20;;;6.70;;
81180;SDS011;70650;51.408;7.132;2023-12-14T11:58:18;16.02;;;6.00;;
81180;SDS011;70650;51.408;7.132;2023-12-14T12:00:44;17.95;;;6.32;;
81180;SDS011;70650;51.408;7.132;2023-12-14T12:05:40;14.90;;;5.07;;
81180;SDS011;70650;51.408;7.132;2023-12-14T12:10:33;16.10;;;4.90;;
81180;SDS011;70650;51.408;7.132;2023-12-14T12:13:02;12.60;;;4.55;;
81180;SDS011;70650;51.408;7.132;2023-12-14T12:15:32;14.05;;;4.55;;
81180;SDS011;70650;51.408;7.132;2023-12-14T12:18:01;13.60;;;4.53;;
81180;SDS011;70650;51.408;7.132;2023-12-14T12:20:30;13.13;;;4.38;;
81180;SDS011;70650;51.408;7.132;2023-12-14T12:22:57;12.23;;;4.22;;
81180;SDS011;70650;51.408;7.132;2023-12-14T12:25:22;12.07;;;4.15;;
81180;SDS011;70650;51.408;7.132;2023-12-14T12:27:48;10.40;;;3.67;;
81180;SDS011;70650;51.408;7.132;2023-12-14T12:30:13;11.90;;;4.68;;
81180;SDS011;70650;51.408;7.132;2023-12-14T12:32:40;13.57;;;4.88;;
81180;SDS011;70650;51.408;7.132;2023-12-14T12:35:05;11.90;;;4.30;;
81180;SDS011;70650;51.408;7.132;2023-12-14T12:37:31;13.75;;;4.85;;
81180;SDS011;70650;51.408;7.132;2023-12-14T12:39:56;13.10;;;5.10;;
81180;SDS011;70650;51.408;7.132;2023-12-14T12:42:22;13.37;;;4.43;;
81180;SDS011;70650;51.408;7.132;2023-12-14T12:44:47;13.63;;;5.13;;
81180;SDS011;70650;51.408;7.132;2023-12-14T12:47:12;14.23;;;5.88;;
81180;SDS011;70650;51.408;7.132;2023-12-14T12:49:38;14.32;;;5.70;;
81180;SDS011;70650;51.408;7.132;2023-12-14T12:52:03;12.37;;;4.27;;
81180;SDS011;70650;51.408;7.132;2023-12-14T12:54:30;12.57;;;5.10;;
81180;SDS011;70650;51.408;7.132;2023-12-14T12:56:56;13.52;;;4.65;;
81180;SDS011;70650;51.408;7.132;2023-12-14T12:59:21;14.87;;;5.23;;
81180;SDS011;70650;51.408;7.132;2023-12-14T13:01:47;16.13;;;5.28;;
81180;SDS011;70650;51.408;7.132;2023-12-14T13:04:20;17.77;;;5.80;;
81180;SDS011;70650;51.408;7.132;2023-12-14T13:06:47;15.13;;;5.47;;
81180;SDS011;70650;51.408;7.132;2023-12-14T13:09:16;12.18;;;4.78;;
81180;SDS011;70650;51.408;7.132;2023-12-14T13:11:44;13.32;;;4.38;;
81180;SDS011;70650;51.408;7.132;2023-12-14T13:14:10;11.35;;;4.28;;
81180;SDS011;70650;51.408;7.132;2023-12-14T13:16:36;15.35;;;4.88;;
81180;SDS011;70650;51.408;7.132;2023-12-14T13:19:02;12.50;;;4.80;;
81180;SDS011;70650;51.408;7.132;2023-12-14T13:21:28;10.85;;;4.47;;
81180;SDS011;70650;51.408;7.132;2023-12-14T13:23:54;11.07;;;4.20;;
81180;SDS011;70650;51.408;7.132;2023-12-14T13:26:21;10.07;;;3.60;;
81180;SDS011;70650;51.408;7.132;2023-12-14T13:28:47;12.25;;;3.95;;
81180;SDS011;70650;51.408;7.132;2023-12-14T13:31:12;11.65;;;4.13;;
81180;SDS011;70650;51.408;7.132;2023-12-14T13:33:37;13.07;;;4.83;;
81180;SDS011;70650;51.408;7.132;2023-12-14T13:36:03;12.25;;;4.20;;
81180;SDS011;70650;51.408;7.132;2023-12-14T13:38:28;11.57;;;4.35;;
81180;SDS011;70650;51.408;7.132;2023-12-14T13:40:54;10.93;;;3.50;;
81180;SDS011;70650;51.408;7.132;2023-12-14T13:43:19;10.65;;;3.60;;
81180;SDS011;70650;51.408;7.132;2023-12-14T13:45:45;10.65;;;3.40;;
81180;SDS011;70650;51.408;7.132;2023-12-14T13:48:10;9.80;;;3.17;;
81180;SDS011;70650;51.408;7.132;2023-12-14T13:50:36;11.53;;;3.60;;
81180;SDS011;70650;51.408;7.132;2023-12-14T13:53:01;10.05;;;3.42;;
81180;SDS011;70650;51.408;7.132;2023-12-14T13:55:27;9.80;;;3.28;;
81180;SDS011;70650;51.408;7.132;2023-12-14T13:57:53;11.95;;;3.65;;
81180;SDS011;70650;51.408;7.132;2023-12-14T14:00:18;11.02;;;3.97;;
81180;SDS011;70650;51.408;7.132;2023-12-14T14:02:45;10.18;;;3.20;;
81180;SDS011;70650;51.408;7.132;2023-12-14T14:05:10;10.67;;;3.20;;
81180;SDS011;70650;51.408;7.132;2023-12-14T14:07:35;10.30;;;3.13;;
81180;SDS011;70650;51.408;7.132;2023-12-14T14:10:01;9.13;;;2.97;;
81180;SDS011;70650;51.408;7.132;2023-12-14T14:12:26;11.80;;;2.95;;
81180;SDS011;70650;51.408;7.132;2023-12-14T14:14:51;12.23;;;3.17;;
81180;SDS011;70650;51.408;7.132;2023-12-14T14:17:17;9.30;;;3.37;;
81180;SDS011;70650;51.408;7.132;2023-12-14T14:19:42;10.85;;;3.30;;
81180;SDS011;70650;51.408;7.132;2023-12-14T14:22:08;9.87;;;3.27;;
81180;SDS011;70650;51.408;7.132;2023-12-14T14:24:33;10.13;;;3.67;;
81180;SDS011;70650;51.408;7.132;2023-12-14T14:26:59;11.40;;;3.22;;
81180;SDS011;70650;51.408;7.132;2023-12-14T14:29:24;10.45;;;3.40;;
81180;SDS011;70650;51.408;7.132;2023-12-14T14:31:50;11.93;;;3.40;;
81180;SDS011;70650;51.408;7.132;2023-12-14T14:34:15;11.93;;;3.72;;
81180;SDS011;70650;51.408;7.132;2023-12-14T14:36:40;11.13;;;3.60;;